Nrc Columbia — WDA8288 — position and weather

sailwx.info

Track history (hours):
 
Tides and Currents Weather Stations Pressure Air Temp Water Temp Dewpoint Dewpoint Depression Visibility Wind Speed Wind Dir Waves Ship Positions

Nrc Columbia

Owner: National Response Corporation, HOUSTON, TX. More information available from US FCC via Universal Licensing System and Coast Guard Vessel Documentation Center.

Last reported at 2014-Oct-26 08:31 UTC. Time now 2014-Oct-26 08:41 UTC.
Position N 48°43' W 122°40'.

Length 35 m.

Type: Pollution control. MMSI: 366710170.

Date/timePositionNaut miles runAvg speedWind from/ knotsBaromVisibWave heightAir tempDewpointWater temp
2014-Oct-26 08:31N 48°43' W 122°40'0 0.0
2014-Oct-26 07:33N 48°43' W 122°40'0 0.0
2014-Oct-26 06:32N 48°43' W 122°40'1 0.9
2014-Oct-26 05:29N 48°44' W 122°41'6 3.0
2014-Oct-26 03:23N 48°50' W 122°43'0 0.0
2014-Oct-26 02:17N 48°50' W 122°43'0 0.0
2014-Oct-26 01:20N 48°50' W 122°43'0 0.0
2014-Oct-26 00:19N 48°50' W 122°43'0 0.0
2014-Oct-25 23:21N 48°50' W 122°43'0 0.0
2014-Oct-25 22:10N 48°50' W 122°43'0 0.0
2014-Oct-25 21:09N 48°50' W 122°43'0 0.0
2014-Oct-25 20:24N 48°50' W 122°43'0 0.0
2014-Oct-25 19:23N 48°50' W 122°43'0 0.0
2014-Oct-25 16:09N 48°50' W 122°43'0 0.0
2014-Oct-25 15:09N 48°50' W 122°43'0 0.1
2014-Oct-25 14:33N 48°50' W 122°43'0 0.0
2014-Oct-25 13:05N 48°50' W 122°43'0 0.0
2014-Oct-25 11:10N 48°50' W 122°43'0 0.0
2014-Oct-25 10:32N 48°50' W 122°43'0 0.0
2014-Oct-25 09:33N 48°50' W 122°43'0 0.0
2014-Oct-25 07:30N 48°50' W 122°43'0 0.0
2014-Oct-25 06:30N 48°50' W 122°43'0 0.0
2014-Oct-25 05:33N 48°50' W 122°43'0 0.0
2014-Oct-25 04:20N 48°50' W 122°43'0 0.0
2014-Oct-25 03:21N 48°50' W 122°43'0 0.0
2014-Oct-24 23:25N 48°50' W 122°43'0 0.0
2014-Oct-24 16:07N 48°50' W 122°43'0 0.0
2014-Oct-24 15:25N 48°50' W 122°43'0 0.0
2014-Oct-24 12:30N 48°50' W 122°43'0 0.0
2014-Oct-24 11:28N 48°50' W 122°43'0 0.0
2014-Oct-24 10:33N 48°50' W 122°43'0 0.0
2014-Oct-24 08:16N 48°50' W 122°43'0 0.0
2014-Oct-24 04:32N 48°50' W 122°43'0 0.0
2014-Oct-23 23:16N 48°50' W 122°43'0 0.0
2014-Oct-23 22:17N 48°50' W 122°43'0 0.0
2014-Oct-23 18:29N 48°50' W 122°43'0 0.0
2014-Oct-23 16:28N 48°50' W 122°43'0 0.0
2014-Oct-23 05:06N 48°50' W 122°43'0 0.0
2014-Oct-23 04:19N 48°50' W 122°43'0 0.0
2014-Oct-23 03:29N 48°50' W 122°43'0 0.0
2014-Oct-23 02:28N 48°50' W 122°43'0 0.0
2014-Oct-23 01:31N 48°50' W 122°43'0 0.0
2014-Oct-22 23:09N 48°50' W 122°43'5 1.6
2014-Oct-22 20:23N 48°45' W 122°42'7 7.4
2014-Oct-22 19:26N 48°41' W 122°33'2 2.8
2014-Oct-22 18:33N 48°44' W 122°31'0 0.2
2014-Oct-22 17:30N 48°43' W 122°31'6 1.2
2014-Oct-22 12:18N 48°43' W 122°40'0 0.0
2014-Oct-22 11:23N 48°43' W 122°40'0 0.0
2014-Oct-22 10:26N 48°43' W 122°40'0 0.0
2014-Oct-22 09:30N 48°43' W 122°40'0 0.0
2014-Oct-22 08:32N 48°43' W 122°40'0 0.0
2014-Oct-22 07:33N 48°43' W 122°40'0 0.1
2014-Oct-22 06:31N 48°43' W 122°40'0 0.1
2014-Oct-22 05:32N 48°43' W 122°40'5 5.1
2014-Oct-22 04:32N 48°47' W 122°44'2 2.5
2014-Oct-22 03:33N 48°50' W 122°43'0 0.0
2014-Oct-22 02:34N 48°50' W 122°43'0 0.0
2014-Oct-22 01:30N 48°50' W 122°43'0 0.0
2014-Oct-22 00:31N 48°50' W 122°43'0 0.0
2014-Oct-21 23:30N 48°50' W 122°43'0 0.0
2014-Oct-21 22:31N 48°50' W 122°43'0 0.0
2014-Oct-21 21:33N 48°50' W 122°43'0 0.0
2014-Oct-21 20:33N 48°50' W 122°43'0 0.0
2014-Oct-21 19:28N 48°50' W 122°43'0 0.0
2014-Oct-21 18:28N 48°50' W 122°43'0 0.0
2014-Oct-21 17:33N 48°50' W 122°43'0 0.0
2014-Oct-21 16:30N 48°50' W 122°43'0 0.0
2014-Oct-21 15:33N 48°50' W 122°43'0 0.0
2014-Oct-21 14:33N 48°50' W 122°43'0 0.0
2014-Oct-21 13:31N 48°50' W 122°43'0 0.0
2014-Oct-21 12:33N 48°50' W 122°43'0 0.0
2014-Oct-21 11:28N 48°50' W 122°43'0 0.0
2014-Oct-21 10:33N 48°50' W 122°43'0 0.0
2014-Oct-21 09:32N 48°50' W 122°43'0 0.0
2014-Oct-21 08:26N 48°50' W 122°43'0 0.0
2014-Oct-21 07:33N 48°50' W 122°43'0 0.0
2014-Oct-21 06:16N 48°50' W 122°43'0 0.0
2014-Oct-21 05:30N 48°50' W 122°43'0 0.0
2014-Oct-21 03:24N 48°50' W 122°43'0 0.0
2014-Oct-21 02:33N 48°50' W 122°43'0 0.0
2014-Oct-21 01:33N 48°50' W 122°43'0 0.0
2014-Oct-21 00:33N 48°50' W 122°43'0 0.0
2014-Oct-20 23:33N 48°50' W 122°43'0 0.0
2014-Oct-20 22:28N 48°50' W 122°43'0 0.0
2014-Oct-20 21:33N 48°50' W 122°43'0 0.0
2014-Oct-20 20:33N 48°50' W 122°43'0 0.0
2014-Oct-20 19:33N 48°50' W 122°43'0 0.0
2014-Oct-20 18:24N 48°50' W 122°43'0 0.0
2014-Oct-20 17:26N 48°50' W 122°43'0 0.0
2014-Oct-20 16:32N 48°50' W 122°43'0 0.0
2014-Oct-20 15:28N 48°50' W 122°43'0 0.0
2014-Oct-20 14:33N 48°50' W 122°43'0 0.0
2014-Oct-20 13:23N 48°50' W 122°43'0 0.0
2014-Oct-20 12:33N 48°50' W 122°43'0 0.0
2014-Oct-20 11:31N 48°50' W 122°43'0 0.0
2014-Oct-20 10:24N 48°50' W 122°43'0 0.0
2014-Oct-20 09:33N 48°50' W 122°43'0 0.0
2014-Oct-20 08:31N 48°50' W 122°43'0 0.0
2014-Oct-20 07:31N 48°50' W 122°43'0 0.0
2014-Oct-20 06:27N 48°50' W 122°43'0 0.0
2014-Oct-20 05:27N 48°50' W 122°43'0 0.0
2014-Oct-20 04:33N 48°50' W 122°43'0 0.0
2014-Oct-20 03:30N 48°50' W 122°43'0 0.0
2014-Oct-20 02:33N 48°50' W 122°43'0 0.0
2014-Oct-20 01:33N 48°50' W 122°43'0 0.0
2014-Oct-20 00:33N 48°50' W 122°43'0 0.0
2014-Oct-19 23:33N 48°50' W 122°43'0 0.0
2014-Oct-19 22:31N 48°50' W 122°43'0 0.0
2014-Oct-19 21:33N 48°50' W 122°43'0 0.0
2014-Oct-19 20:33N 48°50' W 122°43'0 0.0
2014-Oct-19 19:33N 48°50' W 122°43'0 0.0
2014-Oct-19 18:33N 48°50' W 122°43'0 0.0
2014-Oct-19 17:34N 48°50' W 122°43'0 0.0
2014-Oct-19 16:32N 48°50' W 122°43'0 0.0
2014-Oct-19 15:33N 48°50' W 122°43'0 0.0
2014-Oct-19 13:33N 48°50' W 122°43'0 0.0
2014-Oct-19 12:33N 48°50' W 122°43'0 0.0
2014-Oct-19 11:30N 48°50' W 122°43'0 0.0
2014-Oct-19 10:33N 48°50' W 122°43'0 0.0
2014-Oct-19 09:31N 48°50' W 122°43'0 0.0
2014-Oct-19 08:33N 48°50' W 122°43'0 0.0
2014-Oct-19 07:27N 48°50' W 122°43'0 0.0
2014-Oct-19 06:33N 48°50' W 122°43'0 0.0
2014-Oct-19 05:32N 48°50' W 122°43'0 0.0
2014-Oct-19 02:24N 48°50' W 122°43'0 0.0
2014-Oct-19 01:32N 48°50' W 122°43'0 0.0
2014-Oct-19 00:25N 48°50' W 122°43'0 0.1
2014-Oct-18 23:33N 48°50' W 122°43'0 0.0
2014-Oct-18 21:06N 48°50' W 122°43'0 0.0
2014-Oct-18 20:18N 48°50' W 122°43'0 0.0
2014-Oct-18 19:14N 48°50' W 122°43'0 0.0
2014-Oct-18 18:07N 48°50' W 122°43'0 0.0
2014-Oct-18 17:17N 48°50' W 122°43'0 0.0
2014-Oct-18 16:18N 48°50' W 122°43'0 0.0
2014-Oct-18 15:32N 48°50' W 122°43'0 0.0
2014-Oct-18 14:29N 48°50' W 122°43'0 0.0
2014-Oct-18 13:31N 48°50' W 122°43'0 0.0
2014-Oct-18 12:29N 48°50' W 122°43'0 0.0
2014-Oct-18 11:32N 48°50' W 122°43'0 0.0
2014-Oct-18 10:32N 48°50' W 122°43'0 0.0
2014-Oct-18 09:23N 48°50' W 122°43'0 0.0
2014-Oct-18 07:21N 48°50' W 122°43'0 0.0
2014-Oct-18 06:32N 48°50' W 122°43'0 0.0
2014-Oct-18 05:33N 48°50' W 122°43'0 0.0
2014-Oct-18 04:22N 48°50' W 122°43'0 0.0
2014-Oct-18 03:28N 48°50' W 122°43'0 0.0
2014-Oct-18 02:31N 48°50' W 122°43'0 0.0
2014-Oct-18 01:32N 48°50' W 122°43'1 0.9
2014-Oct-18 00:31N 48°49' W 122°43'8 8.1
2014-Oct-17 23:33N 48°42' W 122°39'5 5.5
2014-Oct-17 22:33N 48°43' W 122°31'0 0.0
2014-Oct-17 21:33N 48°43' W 122°31'0 0.0
2014-Oct-17 20:33N 48°43' W 122°31'0 0.0
2014-Oct-17 19:33N 48°43' W 122°31'0 0.0
2014-Oct-17 18:33N 48°43' W 122°31'5 5.3
2014-Oct-17 17:33N 48°42' W 122°39'5 7.1
2014-Oct-17 16:50N 48°46' W 122°43'2 7.9
2014-Oct-17 16:33N 48°48' W 122°44'2 1.7
2014-Oct-17 15:29N 48°50' W 122°43'0 0.0
2014-Oct-17 14:15N 48°50' W 122°43'0 0.0
2014-Oct-17 12:12N 48°50' W 122°43'0 0.0
2014-Oct-17 11:23N 48°50' W 122°43'0 0.0
2014-Oct-17 10:33N 48°50' W 122°43'0 0.0
2014-Oct-17 09:33N 48°50' W 122°43'0 0.0
2014-Oct-17 08:30N 48°50' W 122°43'0 0.0
2014-Oct-17 07:28N 48°50' W 122°43'0 0.0
2014-Oct-17 06:33N 48°50' W 122°43'0 0.0
2014-Oct-17 05:32N 48°50' W 122°43'0 0.0
2014-Oct-17 04:19N 48°50' W 122°43'0 0.0
2014-Oct-17 03:28N 48°50' W 122°43'0 0.0
2014-Oct-17 02:18N 48°50' W 122°43'0 0.0
2014-Oct-17 01:33N 48°50' W 122°43'0 0.0
2014-Oct-17 00:32N 48°50' W 122°43'0 0.0
2014-Oct-16 23:25N 48°50' W 122°43'0 0.0
2014-Oct-16 22:26N 48°50' W 122°43'0 0.0
2014-Oct-16 21:26N 48°50' W 122°43'0 0.0
2014-Oct-16 20:33N 48°50' W 122°43'0 0.0
2014-Oct-16 19:33N 48°50' W 122°43'0 0.0
2014-Oct-16 18:32N 48°50' W 122°43'0 0.0
2014-Oct-16 17:30N 48°50' W 122°43'0 0.0
2014-Oct-16 16:25N 48°50' W 122°43'0 0.0
2014-Oct-16 15:33N 48°50' W 122°43'0 0.0
2014-Oct-16 14:33N 48°50' W 122°43'0 0.0
2014-Oct-16 13:30N 48°50' W 122°43'0 0.0
2014-Oct-16 12:31N 48°50' W 122°43'0 0.0
2014-Oct-16 11:30N 48°50' W 122°43'0 0.0
2014-Oct-16 10:33N 48°50' W 122°43'0 0.0
2014-Oct-16 09:33N 48°50' W 122°43'0 0.0
2014-Oct-16 08:33N 48°50' W 122°43'  
Track history (hours):
 
Tides and Currents Weather Stations Pressure Air Temp Water Temp Dewpoint Dewpoint Depression Visibility Wind Speed Wind Dir Waves Ship Positions

Nrc Columbia

Owner: National Response Corporation, HOUSTON, TX. More information available from US FCC via Universal Licensing System and Coast Guard Vessel Documentation Center.

Last reported at 2014-Oct-26 08:31 UTC. Time now 2014-Oct-26 08:41 UTC.
Position N 48°43' W 122°40'.

Length 35 m.

Type: Pollution control. MMSI: 366710170.

Date/timePositionNaut miles runAvg speedWind from/ knotsBaromVisibWave heightAir tempDewpointWater temp
2014-Oct-26 08:31N 48°43' W 122°40'0 0.0
2014-Oct-26 07:33N 48°43' W 122°40'0 0.0
2014-Oct-26 06:32N 48°43' W 122°40'1 0.9
2014-Oct-26 05:29N 48°44' W 122°41'6 3.0
2014-Oct-26 03:23N 48°50' W 122°43'0 0.0
2014-Oct-26 02:17N 48°50' W 122°43'0 0.0
2014-Oct-26 01:20N 48°50' W 122°43'0 0.0
2014-Oct-26 00:19N 48°50' W 122°43'0 0.0
2014-Oct-25 23:21N 48°50' W 122°43'0 0.0
2014-Oct-25 22:10N 48°50' W 122°43'0 0.0
2014-Oct-25 21:09N 48°50' W 122°43'0 0.0
2014-Oct-25 20:24N 48°50' W 122°43'0 0.0
2014-Oct-25 19:23N 48°50' W 122°43'0 0.0
2014-Oct-25 16:09N 48°50' W 122°43'0 0.0
2014-Oct-25 15:09N 48°50' W 122°43'0 0.1
2014-Oct-25 14:33N 48°50' W 122°43'0 0.0
2014-Oct-25 13:05N 48°50' W 122°43'0 0.0
2014-Oct-25 11:10N 48°50' W 122°43'0 0.0
2014-Oct-25 10:32N 48°50' W 122°43'0 0.0
2014-Oct-25 09:33N 48°50' W 122°43'0 0.0
2014-Oct-25 07:30N 48°50' W 122°43'0 0.0
2014-Oct-25 06:30N 48°50' W 122°43'0 0.0
2014-Oct-25 05:33N 48°50' W 122°43'0 0.0
2014-Oct-25 04:20N 48°50' W 122°43'0 0.0
2014-Oct-25 03:21N 48°50' W 122°43'0 0.0
2014-Oct-24 23:25N 48°50' W 122°43'0 0.0
2014-Oct-24 16:07N 48°50' W 122°43'0 0.0
2014-Oct-24 15:25N 48°50' W 122°43'0 0.0
2014-Oct-24 12:30N 48°50' W 122°43'0 0.0
2014-Oct-24 11:28N 48°50' W 122°43'0 0.0
2014-Oct-24 10:33N 48°50' W 122°43'0 0.0
2014-Oct-24 08:16N 48°50' W 122°43'0 0.0
2014-Oct-24 04:32N 48°50' W 122°43'0 0.0
2014-Oct-23 23:16N 48°50' W 122°43'0 0.0
2014-Oct-23 22:17N 48°50' W 122°43'0 0.0
2014-Oct-23 18:29N 48°50' W 122°43'0 0.0
2014-Oct-23 16:28N 48°50' W 122°43'0 0.0
2014-Oct-23 05:06N 48°50' W 122°43'0 0.0
2014-Oct-23 04:19N 48°50' W 122°43'0 0.0
2014-Oct-23 03:29N 48°50' W 122°43'0 0.0
2014-Oct-23 02:28N 48°50' W 122°43'0 0.0
2014-Oct-23 01:31N 48°50' W 122°43'0 0.0
2014-Oct-22 23:09N 48°50' W 122°43'5 1.6
2014-Oct-22 20:23N 48°45' W 122°42'7 7.4
2014-Oct-22 19:26N 48°41' W 122°33'2 2.8
2014-Oct-22 18:33N 48°44' W 122°31'0 0.2
2014-Oct-22 17:30N 48°43' W 122°31'6 1.2
2014-Oct-22 12:18N 48°43' W 122°40'0 0.0
2014-Oct-22 11:23N 48°43' W 122°40'0 0.0
2014-Oct-22 10:26N 48°43' W 122°40'0 0.0
2014-Oct-22 09:30N 48°43' W 122°40'0 0.0
2014-Oct-22 08:32N 48°43' W 122°40'0 0.0
2014-Oct-22 07:33N 48°43' W 122°40'0 0.1
2014-Oct-22 06:31N 48°43' W 122°40'0 0.1
2014-Oct-22 05:32N 48°43' W 122°40'5 5.1
2014-Oct-22 04:32N 48°47' W 122°44'2 2.5
2014-Oct-22 03:33N 48°50' W 122°43'0 0.0
2014-Oct-22 02:34N 48°50' W 122°43'0 0.0
2014-Oct-22 01:30N 48°50' W 122°43'0 0.0
2014-Oct-22 00:31N 48°50' W 122°43'0 0.0
2014-Oct-21 23:30N 48°50' W 122°43'0 0.0
2014-Oct-21 22:31N 48°50' W 122°43'0 0.0
2014-Oct-21 21:33N 48°50' W 122°43'0 0.0
2014-Oct-21 20:33N 48°50' W 122°43'0 0.0
2014-Oct-21 19:28N 48°50' W 122°43'0 0.0
2014-Oct-21 18:28N 48°50' W 122°43'0 0.0
2014-Oct-21 17:33N 48°50' W 122°43'0 0.0
2014-Oct-21 16:30N 48°50' W 122°43'0 0.0
2014-Oct-21 15:33N 48°50' W 122°43'0 0.0
2014-Oct-21 14:33N 48°50' W 122°43'0 0.0
2014-Oct-21 13:31N 48°50' W 122°43'0 0.0
2014-Oct-21 12:33N 48°50' W 122°43'0 0.0
2014-Oct-21 11:28N 48°50' W 122°43'0 0.0
2014-Oct-21 10:33N 48°50' W 122°43'0 0.0
2014-Oct-21 09:32N 48°50' W 122°43'0 0.0
2014-Oct-21 08:26N 48°50' W 122°43'0 0.0
2014-Oct-21 07:33N 48°50' W 122°43'0 0.0
2014-Oct-21 06:16N 48°50' W 122°43'0 0.0
2014-Oct-21 05:30N 48°50' W 122°43'0 0.0
2014-Oct-21 03:24N 48°50' W 122°43'0 0.0
2014-Oct-21 02:33N 48°50' W 122°43'0 0.0
2014-Oct-21 01:33N 48°50' W 122°43'0 0.0
2014-Oct-21 00:33N 48°50' W 122°43'0 0.0
2014-Oct-20 23:33N 48°50' W 122°43'0 0.0
2014-Oct-20 22:28N 48°50' W 122°43'0 0.0
2014-Oct-20 21:33N 48°50' W 122°43'0 0.0
2014-Oct-20 20:33N 48°50' W 122°43'0 0.0
2014-Oct-20 19:33N 48°50' W 122°43'0 0.0
2014-Oct-20 18:24N 48°50' W 122°43'0 0.0
2014-Oct-20 17:26N 48°50' W 122°43'0 0.0
2014-Oct-20 16:32N 48°50' W 122°43'0 0.0
2014-Oct-20 15:28N 48°50' W 122°43'0 0.0
2014-Oct-20 14:33N 48°50' W 122°43'0 0.0
2014-Oct-20 13:23N 48°50' W 122°43'0 0.0
2014-Oct-20 12:33N 48°50' W 122°43'0 0.0
2014-Oct-20 11:31N 48°50' W 122°43'0 0.0
2014-Oct-20 10:24N 48°50' W 122°43'0 0.0
2014-Oct-20 09:33N 48°50' W 122°43'0 0.0
2014-Oct-20 08:31N 48°50' W 122°43'0 0.0
2014-Oct-20 07:31N 48°50' W 122°43'0 0.0
2014-Oct-20 06:27N 48°50' W 122°43'0 0.0
2014-Oct-20 05:27N 48°50' W 122°43'0 0.0
2014-Oct-20 04:33N 48°50' W 122°43'0 0.0
2014-Oct-20 03:30N 48°50' W 122°43'0 0.0
2014-Oct-20 02:33N 48°50' W 122°43'0 0.0
2014-Oct-20 01:33N 48°50' W 122°43'0 0.0
2014-Oct-20 00:33N 48°50' W 122°43'0 0.0
2014-Oct-19 23:33N 48°50' W 122°43'0 0.0
2014-Oct-19 22:31N 48°50' W 122°43'0 0.0
2014-Oct-19 21:33N 48°50' W 122°43'0 0.0
2014-Oct-19 20:33N 48°50' W 122°43'0 0.0
2014-Oct-19 19:33N 48°50' W 122°43'0 0.0
2014-Oct-19 18:33N 48°50' W 122°43'0 0.0
2014-Oct-19 17:34N 48°50' W 122°43'0 0.0
2014-Oct-19 16:32N 48°50' W 122°43'0 0.0
2014-Oct-19 15:33N 48°50' W 122°43'0 0.0
2014-Oct-19 13:33N 48°50' W 122°43'0 0.0
2014-Oct-19 12:33N 48°50' W 122°43'0 0.0
2014-Oct-19 11:30N 48°50' W 122°43'0 0.0
2014-Oct-19 10:33N 48°50' W 122°43'0 0.0
2014-Oct-19 09:31N 48°50' W 122°43'0 0.0
2014-Oct-19 08:33N 48°50' W 122°43'0 0.0
2014-Oct-19 07:27N 48°50' W 122°43'0 0.0
2014-Oct-19 06:33N 48°50' W 122°43'0 0.0
2014-Oct-19 05:32N 48°50' W 122°43'0 0.0
2014-Oct-19 02:24N 48°50' W 122°43'0 0.0
2014-Oct-19 01:32N 48°50' W 122°43'0 0.0
2014-Oct-19 00:25N 48°50' W 122°43'0 0.1
2014-Oct-18 23:33N 48°50' W 122°43'0 0.0
2014-Oct-18 21:06N 48°50' W 122°43'0 0.0
2014-Oct-18 20:18N 48°50' W 122°43'0 0.0
2014-Oct-18 19:14N 48°50' W 122°43'0 0.0
2014-Oct-18 18:07N 48°50' W 122°43'0 0.0
2014-Oct-18 17:17N 48°50' W 122°43'0 0.0
2014-Oct-18 16:18N 48°50' W 122°43'0 0.0
2014-Oct-18 15:32N 48°50' W 122°43'0 0.0
2014-Oct-18 14:29N 48°50' W 122°43'0 0.0
2014-Oct-18 13:31N 48°50' W 122°43'0 0.0
2014-Oct-18 12:29N 48°50' W 122°43'0 0.0
2014-Oct-18 11:32N 48°50' W 122°43'0 0.0
2014-Oct-18 10:32N 48°50' W 122°43'0 0.0
2014-Oct-18 09:23N 48°50' W 122°43'0 0.0
2014-Oct-18 07:21N 48°50' W 122°43'0 0.0
2014-Oct-18 06:32N 48°50' W 122°43'0 0.0
2014-Oct-18 05:33N 48°50' W 122°43'0 0.0
2014-Oct-18 04:22N 48°50' W 122°43'0 0.0
2014-Oct-18 03:28N 48°50' W 122°43'0 0.0
2014-Oct-18 02:31N 48°50' W 122°43'0 0.0
2014-Oct-18 01:32N 48°50' W 122°43'1 0.9
2014-Oct-18 00:31N 48°49' W 122°43'8 8.1
2014-Oct-17 23:33N 48°42' W 122°39'5 5.5
2014-Oct-17 22:33N 48°43' W 122°31'0 0.0
2014-Oct-17 21:33N 48°43' W 122°31'0 0.0
2014-Oct-17 20:33N 48°43' W 122°31'0 0.0
2014-Oct-17 19:33N 48°43' W 122°31'0 0.0
2014-Oct-17 18:33N 48°43' W 122°31'5 5.3
2014-Oct-17 17:33N 48°42' W 122°39'5 7.1
2014-Oct-17 16:50N 48°46' W 122°43'2 7.9
2014-Oct-17 16:33N 48°48' W 122°44'2 1.7
2014-Oct-17 15:29N 48°50' W 122°43'0 0.0
2014-Oct-17 14:15N 48°50' W 122°43'0 0.0
2014-Oct-17 12:12N 48°50' W 122°43'0 0.0
2014-Oct-17 11:23N 48°50' W 122°43'0 0.0
2014-Oct-17 10:33N 48°50' W 122°43'0 0.0
2014-Oct-17 09:33N 48°50' W 122°43'0 0.0
2014-Oct-17 08:30N 48°50' W 122°43'0 0.0
2014-Oct-17 07:28N 48°50' W 122°43'0 0.0
2014-Oct-17 06:33N 48°50' W 122°43'0 0.0
2014-Oct-17 05:32N 48°50' W 122°43'0 0.0
2014-Oct-17 04:19N 48°50' W 122°43'0 0.0
2014-Oct-17 03:28N 48°50' W 122°43'0 0.0
2014-Oct-17 02:18N 48°50' W 122°43'0 0.0
2014-Oct-17 01:33N 48°50' W 122°43'0 0.0
2014-Oct-17 00:32N 48°50' W 122°43'0 0.0
2014-Oct-16 23:25N 48°50' W 122°43'0 0.0
2014-Oct-16 22:26N 48°50' W 122°43'0 0.0
2014-Oct-16 21:26N 48°50' W 122°43'0 0.0
2014-Oct-16 20:33N 48°50' W 122°43'0 0.0
2014-Oct-16 19:33N 48°50' W 122°43'0 0.0
2014-Oct-16 18:32N 48°50' W 122°43'0 0.0
2014-Oct-16 17:30N 48°50' W 122°43'0 0.0
2014-Oct-16 16:25N 48°50' W 122°43'0 0.0
2014-Oct-16 15:33N 48°50' W 122°43'0 0.0
2014-Oct-16 14:33N 48°50' W 122°43'0 0.0
2014-Oct-16 13:30N 48°50' W 122°43'0 0.0
2014-Oct-16 12:31N 48°50' W 122°43'0 0.0
2014-Oct-16 11:30N 48°50' W 122°43'0 0.0
2014-Oct-16 10:33N 48°50' W 122°43'0 0.0
2014-Oct-16 09:33N 48°50' W 122°43'0 0.0
2014-Oct-16 08:33N 48°50' W 122°43'  

Dump ship's entire track history